Time;durP1;ratioP1;P1;durP2;ratioP2;P2;SDS_P1;SDS_P2;PMS_P1;PMS_P2;Temp;Humidity;BMP_temperature;BMP_pressure;BME280_temperature;BME280_humidity;BME280_pressure;Samples;Min_cycle;Max_cycle;Signal;HPM_P1;HPM_P2
2021/12/18 00:01:50;;;;;;;6.43;1.55;;;;;;;20.16;37.29;103899.03;7318735;19;128895;-69
2021/12/18 00:04:17;;;;;;;4.15;1.60;;;;;;;20.12;36.92;103903.22;7313385;19;129879;-69
2021/12/18 00:06:44;;;;;;;6.80;1.75;;;;;;;20.09;36.93;103904.47;7315307;19;130465;-66
2021/12/18 00:09:11;;;;;;;2.20;1.17;;;;;;;20.07;36.90;103902.91;7313058;19;130380;-68
2021/12/18 00:11:38;;;;;;;4.55;2.53;;;;;;;20.04;37.02;103911.63;7313997;19;137394;-69
2021/12/18 00:14:04;;;;;;;4.57;2.10;;;;;;;20.01;36.81;103900.88;7315111;19;128775;-69
2021/12/18 00:16:31;;;;;;;3.85;1.92;;;;;;;19.97;37.17;103911.47;7312805;19;131240;-69
2021/12/18 00:18:58;;;;;;;3.85;1.70;;;;;;;19.94;37.19;103912.66;7316432;19;131075;-69
2021/12/18 00:21:26;;;;;;;2.80;1.85;;;;;;;19.92;36.81;103914.78;7312506;19;129796;-69
2021/12/18 00:23:53;;;;;;;3.63;1.80;;;;;;;19.89;36.78;103909.59;7316191;19;129002;-69
2021/12/18 00:26:20;;;;;;;2.85;1.92;;;;;;;19.88;36.84;103907.84;7310983;19;131007;-69
2021/12/18 00:28:47;;;;;;;5.38;1.52;;;;;;;19.85;36.85;103908.22;7314250;19;130467;-69
2021/12/18 00:31:14;;;;;;;3.75;1.60;;;;;;;19.84;37.00;103912.03;7312476;19;129472;-69
2021/12/18 00:33:41;;;;;;;4.63;1.90;;;;;;;19.79;36.95;103909.81;7311836;19;129034;-69
2021/12/18 00:36:08;;;;;;;3.58;1.75;;;;;;;19.77;37.16;103905.50;7313513;19;130928;-69
2021/12/18 00:38:35;;;;;;;3.90;1.55;;;;;;;19.75;37.29;103896.47;7312747;19;130466;-69
2021/12/18 00:43:40;;;;;;;4.35;1.60;;;;;;;19.69;37.03;103886.94;7312837;19;129979;-69
2021/12/18 00:46:07;;;;;;;5.30;2.05;;;;;;;19.66;37.19;103885.41;7313834;19;130537;-69
2021/12/18 00:48:34;;;;;;;6.75;1.80;;;;;;;19.64;37.40;103886.59;7311637;19;130360;-69
2021/12/18 00:51:00;;;;;;;4.45;1.98;;;;;;;19.61;36.95;103889.78;7314069;19;128913;-69
2021/12/18 00:53:30;;;;;;;3.05;1.88;;;;;;;19.59;37.19;103876.06;7313020;19;129576;-70
2021/12/18 00:55:57;;;;;;;3.55;1.92;;;;;;;19.57;37.04;103880.91;7313168;19;131707;-70
2021/12/18 00:58:24;;;;;;;2.55;1.88;;;;;;;19.55;37.22;103885.81;7314189;19;130952;-69
2021/12/18 01:00:53;;;;;;;3.38;1.95;;;;;;;19.54;37.31;103886.84;7313494;19;128992;-69
2021/12/18 01:03:21;;;;;;;3.17;1.98;;;;;;;19.52;37.39;103886.16;7315632;19;128899;-69
2021/12/18 01:05:49;;;;;;;4.63;1.90;;;;;;;19.50;37.15;103889.13;7311560;19;130622;-69
2021/12/18 01:08:16;;;;;;;3.42;2.15;;;;;;;19.49;37.53;103889.28;7312053;19;130677;-69
2021/12/18 01:13:20;;;;;;;3.17;2.25;;;;;;;19.45;37.58;103883.25;7314953;19;128980;-69
2021/12/18 01:15:51;;;;;;;4.82;1.90;;;;;;;19.44;37.20;103884.28;7315071;19;130583;-69
2021/12/18 01:23:48;;;;;;;3.72;1.90;;;;;;;19.39;37.38;103881.16;7312257;19;129033;-69
2021/12/18 01:26:16;;;;;;;3.40;2.13;;;;;;;19.37;37.39;103883.28;7313228;19;130509;-68
2021/12/18 01:28:43;;;;;;;3.00;1.95;;;;;;;19.35;37.53;103880.66;7310796;19;131486;-69
2021/12/18 01:31:10;;;;;;;3.70;2.55;;;;;;;19.34;37.32;103881.72;7314605;19;129054;-69
2021/12/18 01:33:36;;;;;;;4.82;2.30;;;;;;;19.32;37.19;103889.34;7311992;19;130871;-69
2021/12/18 01:36:04;;;;;;;7.70;2.63;;;;;;;19.32;37.24;103885.72;7312953;19;131259;-69
2021/12/18 01:38:31;;;;;;;4.57;2.60;;;;;;;19.29;37.08;103875.84;7313606;19;131338;-69
2021/12/18 01:41:00;;;;;;;3.70;2.22;;;;;;;19.28;37.36;103882.44;7313124;19;135375;-69
2021/12/18 01:46:37;;;;;;;2.10;1.90;;;;;;;19.24;37.69;103892.16;7311878;19;130374;-69
2021/12/18 01:52:17;;;;;;;3.35;2.42;;;;;;;19.20;37.44;103888.84;7314196;19;128893;-68
2021/12/18 01:54:45;;;;;;;2.45;1.77;;;;;;;19.19;37.64;103891.81;7310826;19;129052;-69
2021/12/18 01:57:13;;;;;;;3.30;2.20;;;;;;;19.18;37.25;103890.06;7312442;19;131790;-69
2021/12/18 01:59:45;;;;;;;2.85;2.08;;;;;;;19.18;37.53;103887.31;7311858;19;131689;-69
2021/12/18 02:02:13;;;;;;;3.97;2.67;;;;;;;19.17;37.36;103893.91;7315642;19;128779;-69
2021/12/18 02:04:40;;;;;;;2.67;1.98;;;;;;;19.15;37.27;103891.28;7319259;19;129440;-69
2021/12/18 02:07:07;;;;;;;3.10;2.13;;;;;;;19.15;37.45;103890.44;7318097;19;130452;-68
2021/12/18 02:10:20;;;;;;;2.63;1.98;;;;;;;19.14;37.70;103883.13;7322112;19;130835;-69
2021/12/18 02:12:36;;;;;;;3.17;1.73;;;;;;;19.11;37.71;103877.94;7315832;19;134566;-69
2021/12/18 02:23:00;;;;;;;3.05;2.70;;;;;;;19.08;37.27;103874.47;7319918;19;129306;-69
2021/12/18 02:25:30;;;;;;;3.40;2.25;;;;;;;19.09;37.26;103875.34;7316561;19;129531;-68
2021/12/18 02:27:57;;;;;;;2.03;1.77;;;;;;;19.11;37.51;103872.38;7316592;19;130559;-67
2021/12/18 02:30:25;;;;;;;3.28;2.00;;;;;;;19.10;37.28;103865.09;7317363;19;130436;-69
2021/12/18 02:32:52;;;;;;;2.30;1.73;;;;;;;19.09;37.69;103869.81;7321050;19;128903;-68
2021/12/18 02:35:28;;;;;;;1.80;1.60;;;;;;;19.09;37.18;103869.81;7318199;19;129049;-69
2021/12/18 02:38:09;;;;;;;2.83;2.10;;;;;;;19.07;37.47;103858.91;7316721;19;130907;-68
2021/12/18 02:43:23;;;;;;;2.65;2.35;;;;;;;19.05;37.48;103865.63;7317711;19;129004;-69
2021/12/18 02:45:53;;;;;;;2.30;1.90;;;;;;;19.03;37.56;103865.81;7317921;19;128751;-68
2021/12/18 02:48:20;;;;;;;2.38;2.00;;;;;;;19.01;37.66;103859.59;7315069;19;130657;-69
2021/12/18 02:50:47;;;;;;;3.33;1.92;;;;;;;19.01;37.40;103865.13;7317350;19;130594;-68
2021/12/18 02:53:13;;;;;;;2.60;2.10;;;;;;;19.00;37.40;103857.84;7319675;19;129918;-68
2021/12/18 02:55:40;;;;;;;2.58;1.77;;;;;;;18.99;37.55;103861.66;7316020;19;128960;-69
2021/12/18 02:58:07;;;;;;;2.53;1.77;;;;;;;18.99;37.45;103861.66;7317835;19;130703;-69
2021/12/18 03:00:33;;;;;;;2.95;2.20;;;;;;;18.98;37.77;103857.16;7315966;19;131294;-69
2021/12/18 03:03:06;;;;;;;2.75;2.25;;;;;;;18.98;37.25;103859.94;7317457;19;128899;-69
2021/12/18 03:05:39;;;;;;;2.83;2.20;;;;;;;18.98;37.41;103857.16;7319688;19;129974;-69
2021/12/18 03:08:13;;;;;;;4.07;2.60;;;;;;;18.96;37.39;103853.69;7315711;19;131324;-69
2021/12/18 03:26:55;;;;;;;2.88;2.03;;;;;;;18.87;37.51;103843.66;7315141;19;129118;-68
2021/12/18 03:29:22;;;;;;;4.13;2.88;;;;;;;18.85;37.68;103845.75;7315453;19;130632;-68
2021/12/18 03:31:49;;;;;;;2.38;1.33;;;;;;;18.85;37.34;103845.75;7318714;19;131038;-69
2021/12/18 03:34:16;;;;;;;3.70;2.45;;;;;;;18.84;37.59;103852.34;7314974;19;129614;-69
2021/12/18 03:36:43;;;;;;;4.55;2.65;;;;;;;18.84;37.54;103849.56;7318544;19;129577;-69
2021/12/18 03:39:09;;;;;;;3.03;2.47;;;;;;;18.83;37.40;103854.25;7314410;19;130648;-69
2021/12/18 03:41:36;;;;;;;3.13;2.00;;;;;;;18.81;37.38;103850.78;7318068;19;130526;-68
2021/12/18 03:44:03;;;;;;;2.58;1.95;;;;;;;18.80;37.46;103842.66;7314845;19;129143;-69
2021/12/18 03:46:30;;;;;;;2.78;2.03;;;;;;;18.79;37.57;103846.47;7316749;19;128781;-69
2021/12/18 03:48:56;;;;;;;3.80;2.30;;;;;;;18.79;37.91;103854.78;7314089;19;130623;-69
2021/12/18 03:51:23;;;;;;;4.28;2.40;;;;;;;18.78;37.55;103845.59;7315322;19;130599;-68
2021/12/18 03:53:50;;;;;;;2.50;2.10;;;;;;;18.77;37.93;103843.84;7317588;19;130373;-69
2021/12/18 03:56:17;;;;;;;2.20;1.95;;;;;;;18.76;37.43;103854.09;7315438;19;128695;-69
2021/12/18 03:58:44;;;;;;;2.40;2.10;;;;;;;18.76;37.94;103850.47;7317840;19;130796;-69
2021/12/18 04:01:11;;;;;;;2.15;1.83;;;;;;;18.74;37.56;103849.78;7313064;19;130518;-69
2021/12/18 04:03:38;;;;;;;2.67;1.70;;;;;;;18.73;37.98;103851.66;7317624;19;129120;-69
2021/12/18 04:06:05;;;;;;;3.33;2.00;;;;;;;18.73;37.88;103843.34;7315791;19;131087;-69
2021/12/18 04:08:32;;;;;;;1.98;1.52;;;;;;;18.73;37.92;103837.78;7317039;19;130766;-69
2021/12/18 04:10:58;;;;;;;2.63;2.28;;;;;;;18.73;37.99;103848.03;7314573;19;131294;-69
2021/12/18 04:13:25;;;;;;;2.15;1.85;;;;;;;18.71;37.68;103850.13;7314784;19;129382;-67
2021/12/18 04:15:52;;;;;;;3.15;2.22;;;;;;;18.71;37.87;103852.88;7317551;19;128916;-69
2021/12/18 04:18:18;;;;;;;3.53;2.35;;;;;;;18.70;37.91;103849.25;7313266;19;130507;-68
2021/12/18 04:20:45;;;;;;;2.25;2.05;;;;;;;18.69;37.82;103847.53;7316691;19;130558;-68
2021/12/18 04:23:12;;;;;;;2.45;2.05;;;;;;;18.68;38.05;103850.47;7313767;19;128871;-69
2021/12/18 04:25:40;;;;;;;3.08;2.28;;;;;;;18.67;38.00;103844.06;7314819;19;128833;-68
2021/12/18 04:28:07;;;;;;;3.03;2.15;;;;;;;18.67;37.92;103855.16;7314330;19;130656;-69
2021/12/18 04:30:33;;;;;;;2.33;1.70;;;;;;;18.66;37.63;103850.66;7313795;19;131107;-69
2021/12/18 04:33:00;;;;;;;3.28;2.30;;;;;;;18.67;37.68;103855.16;7317319;19;129303;-69
2021/12/18 04:35:30;;;;;;;2.80;1.98;;;;;;;18.65;37.59;103851.69;7314510;19;129660;-68
2021/12/18 04:37:56;;;;;;;2.22;1.95;;;;;;;18.65;37.68;103854.47;7317080;19;130556;-68
2021/12/18 04:40:26;;;;;;;2.58;2.15;;;;;;;18.65;37.70;103854.47;7313498;19;130350;-69
2021/12/18 04:42:54;;;;;;;2.47;2.00;;;;;;;18.64;37.63;103852.72;7316080;19;128875;-68
2021/12/18 04:45:20;;;;;;;2.70;2.05;;;;;;;18.63;37.58;103848.22;7312459;19;128997;-69
2021/12/18 04:47:47;;;;;;;2.78;2.35;;;;;;;18.63;37.56;103856.53;7314407;19;131524;-69
2021/12/18 04:50:14;;;;;;;2.90;2.30;;;;;;;18.64;37.79;103860.19;7315295;19;133295;-69
2021/12/18 04:52:41;;;;;;;3.00;2.15;;;;;;;18.61;37.91;103853.06;7315398;19;134386;-69
2021/12/18 04:55:08;;;;;;;3.60;2.42;;;;;;;18.61;37.83;103839.19;7315489;19;128923;-68
2021/12/18 04:57:35;;;;;;;2.60;2.33;;;;;;;18.60;37.94;103849.44;7313453;19;130572;-69
2021/12/18 05:00:05;;;;;;;2.22;1.85;;;;;;;18.58;38.06;103845.13;7315322;19;131246;-69
2021/12/18 05:02:43;;;;;;;2.75;2.45;;;;;;;18.59;37.56;103852.38;7311928;19;128917;-67
2021/12/18 05:05:15;;;;;;;3.47;2.70;;;;;;;18.58;37.99;103851.50;7316045;19;129400;-68
2021/12/18 05:07:42;;;;;;;3.30;3.00;;;;;;;18.58;37.56;103853.44;7312759;19;130992;-67
2021/12/18 05:10:11;;;;;;;2.60;2.08;;;;;;;18.58;37.60;103858.97;7313451;19;131072;-68
2021/12/18 05:12:37;;;;;;;3.55;2.38;;;;;;;18.58;37.53;103858.97;7312569;19;129878;-69
2021/12/18 05:15:06;;;;;;;3.60;2.45;;;;;;;18.58;37.63;103853.44;7313137;19;129011;-69
2021/12/18 05:17:33;;;;;;;3.40;2.40;;;;;;;18.57;37.57;103860.03;7315307;19;130546;-69
2021/12/18 05:19:59;;;;;;;2.13;1.92;;;;;;;18.56;37.71;103855.50;7310789;19;131320;-69
2021/12/18 05:22:26;;;;;;;3.33;2.45;;;;;;;18.54;37.81;103863.13;7315896;19;129230;-68
2021/12/18 05:24:53;;;;;;;2.53;2.10;;;;;;;18.53;37.70;103856.69;7311869;19;129099;-68
2021/12/18 05:27:19;;;;;;;2.75;2.20;;;;;;;18.53;37.65;103861.41;7311647;19;131509;-69
2021/12/18 05:29:46;;;;;;;3.05;2.30;;;;;;;18.53;38.00;103873.34;7312011;19;130402;-69
2021/12/18 05:32:12;;;;;;;2.55;2.20;;;;;;;18.52;37.48;103867.97;7314667;19;128883;-69
2021/12/18 05:34:40;;;;;;;2.53;2.00;;;;;;;18.51;37.80;103872.69;7311601;19;129354;-69
2021/12/18 05:37:31;;;;;;;3.65;2.45;;;;;;;18.51;37.47;103877.34;7311394;19;131643;-69
2021/12/18 05:39:59;;;;;;;2.38;2.08;;;;;;;18.49;37.90;103873.88;7314903;19;131574;-69
2021/12/18 05:42:25;;;;;;;4.05;2.08;;;;;;;18.50;37.90;103875.59;7312173;19;129096;-68
2021/12/18 05:44:52;;;;;;;3.30;2.40;;;;;;;18.49;37.41;103874.75;7313643;19;128890;-69
2021/12/18 05:47:19;;;;;;;2.67;2.20;;;;;;;18.49;37.78;103871.09;7309493;19;131078;-69
2021/12/18 05:49:46;;;;;;;3.10;2.10;;;;;;;18.47;37.44;103874.06;7311147;19;131386;-68
2021/12/18 05:52:13;;;;;;;3.33;2.17;;;;;;;18.46;37.69;103867.63;7311568;19;129178;-69
2021/12/18 05:54:39;;;;;;;2.42;1.90;;;;;;;18.44;37.60;103864.19;7311428;19;129572;-68
2021/12/18 05:57:07;;;;;;;2.63;2.13;;;;;;;18.45;37.83;103865.03;7311549;19;130962;-69
2021/12/18 05:59:34;;;;;;;2.17;1.92;;;;;;;18.43;37.72;103865.22;7311884;19;130631;-68
2021/12/18 06:02:01;;;;;;;2.42;1.52;;;;;;;18.43;37.73;103856.91;7313602;19;129735;-68
2021/12/18 06:04:28;;;;;;;2.85;2.08;;;;;;;18.42;37.75;103869.03;7311271;19;129780;-69
2021/12/18 06:07:03;;;;;;;2.65;2.28;;;;;;;18.40;37.35;103868.31;7311515;19;131280;-69
2021/12/18 06:09:32;;;;;;;2.67;2.22;;;;;;;18.42;37.72;103868.16;7310009;19;131062;-68
2021/12/18 06:11:58;;;;;;;2.65;1.95;;;;;;;18.42;37.72;103863.47;7311567;19;128764;-68
2021/12/18 06:14:25;;;;;;;2.25;1.95;;;;;;;18.42;37.54;103862.59;7313539;19;129593;-68
2021/12/18 06:16:52;;;;;;;2.40;2.05;;;;;;;18.41;37.51;103867.28;7310340;19;130880;-69
2021/12/18 06:19:19;;;;;;;1.77;1.50;;;;;;;18.39;37.59;103863.81;7314009;19;131826;-69
2021/12/18 06:21:46;;;;;;;2.15;1.70;;;;;;;18.39;37.68;103869.38;7309603;19;129094;-69
2021/12/18 06:24:13;;;;;;;2.70;2.00;;;;;;;18.39;37.83;103863.81;7313040;19;129027;-69
2021/12/18 06:26:39;;;;;;;2.63;2.15;;;;;;;18.37;37.64;103860.31;7311123;19;130794;-68
2021/12/18 06:29:06;;;;;;;2.25;1.67;;;;;;;18.37;37.78;103865.84;7311942;19;130669;-68
2021/12/18 06:31:34;;;;;;;1.88;1.50;;;;;;;18.37;37.44;103871.41;7309896;19;129068;-69
2021/12/18 06:34:00;;;;;;;2.13;1.83;;;;;;;18.37;37.85;103871.41;7310871;19;129026;-69
2021/12/18 06:36:27;;;;;;;2.25;1.80;;;;;;;18.36;37.47;103864.13;7310662;19;130963;-68
2021/12/18 06:38:54;;;;;;;2.70;1.75;;;;;;;18.35;37.53;103865.16;7309077;19;130646;-68
2021/12/18 06:41:20;;;;;;;2.85;2.08;;;;;;;18.35;37.45;103865.16;7313641;19;131118;-68
2021/12/18 06:43:47;;;;;;;2.40;1.48;;;;;;;18.35;37.50;103869.84;7309188;19;129135;-68
2021/12/18 06:46:14;;;;;;;2.08;1.70;;;;;;;18.35;37.44;103867.09;7310701;19;130974;-69
2021/12/18 06:48:40;;;;;;;2.08;1.70;;;;;;;18.33;37.92;103858.97;7314201;19;130657;-69
2021/12/18 06:51:07;;;;;;;2.75;1.60;;;;;;;18.34;37.49;103865.34;7316492;19;128737;-69
2021/12/18 06:53:34;;;;;;;2.58;2.13;;;;;;;18.31;37.38;103872.97;7319811;19;129574;-68
2021/12/18 06:56:03;;;;;;;2.28;1.75;;;;;;;18.30;37.80;103871.22;7315460;19;130711;-68
2021/12/18 06:58:30;;;;;;;3.03;1.98;;;;;;;18.29;37.50;103875.03;7319128;19;130542;-68
2021/12/18 07:00:56;;;;;;;2.22;1.90;;;;;;;18.29;37.77;103869.50;7314717;19;129008;-68
2021/12/18 07:03:24;;;;;;;2.95;2.10;;;;;;;18.29;37.50;103871.41;7320307;19;128794;-68
2021/12/18 07:05:50;;;;;;;2.42;1.95;;;;;;;18.29;37.68;103857.56;7315038;19;130702;-68
2021/12/18 07:08:17;;;;;;;2.10;1.73;;;;;;;18.28;37.88;103866.91;7315999;19;130521;-68
2021/12/18 07:10:44;;;;;;;2.90;2.47;;;;;;;18.25;37.46;103862.59;7314963;19;132221;-69
2021/12/18 07:13:12;;;;;;;2.42;2.17;;;;;;;18.24;37.39;103863.63;7317185;19;129369;-68
2021/12/18 07:15:39;;;;;;;2.00;1.67;;;;;;;18.24;37.66;103869.16;7317337;19;130693;-68
2021/12/18 07:18:06;;;;;;;2.38;1.95;;;;;;;18.23;37.90;103861.00;7315914;19;130712;-68
2021/12/18 07:20:33;;;;;;;3.15;2.15;;;;;;;18.23;37.66;103863.78;7317060;19;129029;-68
2021/12/18 07:23:00;;;;;;;2.30;1.60;;;;;;;18.23;37.64;103866.53;7314108;19;129361;-68
2021/12/18 07:25:28;;;;;;;2.88;2.10;;;;;;;18.23;37.67;103855.47;7313481;19;131483;-68
2021/12/18 07:27:55;;;;;;;5.00;2.35;;;;;;;18.24;37.39;103862.72;7311874;19;130426;-68
2021/12/18 07:30:22;;;;;;;5.10;2.50;;;;;;;18.24;37.81;103866.38;7314343;19;132984;-68
2021/12/18 07:32:49;;;;;;;3.08;2.40;;;;;;;18.27;37.83;103862.41;7316898;19;129045;-68
2021/12/18 07:35:16;;;;;;;3.50;2.50;;;;;;;18.32;37.34;103857.22;7311636;19;135948;-68
2021/12/18 07:37:43;;;;;;;3.42;2.60;;;;;;;18.41;37.57;103861.75;7317239;19;131849;-68
2021/12/18 07:40:10;;;;;;;4.55;2.70;;;;;;;18.47;37.56;103862.97;7314149;19;129051;-68
2021/12/18 07:42:37;;;;;;;5.75;2.50;;;;;;;18.56;37.50;103859.13;7316669;19;129492;-68
2021/12/18 07:45:05;;;;;;;6.93;2.47;;;;;;;18.68;37.37;103856.88;7313732;19;131132;-69
2021/12/18 07:47:32;;;;;;;2.83;1.90;;;;;;;18.79;37.18;103865.88;7315082;19;130602;-67
2021/12/18 07:49:58;;;;;;;4.63;2.00;;;;;;;;;;7314900;19;129590;-68
2021/12/18 07:52:25;;;;;;;;;;;;;;;19.03;36.65;103876.94;7314110;19;128996;-68
2021/12/18 07:54:51;;;;;;;4.70;2.10;;;;;;;19.19;36.56;103867.69;7315839;19;130707;-67
2021/12/18 07:57:18;;;;;;;2.78;1.63;;;;;;;19.32;36.64;103867.13;7314761;19;130737;-68
2021/12/18 07:59:45;;;;;;;3.95;2.08;;;;;;;19.47;36.39;103875.59;7315692;19;128915;-68
2021/12/18 08:02:12;;;;;;;7.00;1.80;;;;;;;19.59;36.82;103872.44;7308608;19;131216;-68
2021/12/18 08:04:38;;;;;;;5.85;2.03;;;;;;;19.73;36.59;103882.78;7314745;19;131487;-69
2021/12/18 08:07:05;;;;;;;2.95;1.50;;;;;;;19.86;36.80;103890.50;7314578;19;132723;-71
2021/12/18 08:09:32;;;;;;;7.00;1.95;;;;;;;19.97;36.70;103881.75;7315415;19;129064;-71
2021/12/18 08:11:58;;;;;;;3.00;1.52;;;;;;;20.08;36.23;103877.72;7314551;19;129006;-71
2021/12/18 08:14:25;;;;;;;3.55;1.70;;;;;;;20.20;36.59;103882.84;7314729;19;130665;-70
2021/12/18 08:16:52;;;;;;;5.80;1.40;;;;;;;20.31;36.38;103884.34;7315561;19;130432;-68
2021/12/18 08:19:19;;;;;;;2.60;1.30;;;;;;;20.40;36.37;103883.22;7312512;19;130822;-70
2021/12/18 08:21:46;;;;;;;5.03;1.35;;;;;;;20.49;36.20;103870.97;7316193;19;129284;-69
2021/12/18 08:24:12;;;;;;;3.50;1.80;;;;;;;20.59;35.86;103879.06;7313318;19;130761;-69
2021/12/18 08:26:39;;;;;;;1.90;1.50;;;;;;;20.67;35.80;103889.25;7316495;19;130757;-70
2021/12/18 08:29:06;;;;;;;2.00;1.08;;;;;;;20.74;35.74;103879.09;7309769;19;129610;-69
2021/12/18 08:31:32;;;;;;;2.83;1.27;;;;;;;20.82;35.83;103879.03;7316036;19;129164;-69
2021/12/18 08:33:59;;;;;;;2.00;1.23;;;;;;;20.83;35.62;103880.75;7313013;19;130670;-68
2021/12/18 08:36:26;;;;;;;2.05;1.27;;;;;;;20.83;35.71;103885.47;7312484;19;130511;-68
2021/12/18 08:38:52;;;;;;;6.68;1.42;;;;;;;20.81;35.54;103885.63;7313165;19;132368;-68
2021/12/18 08:41:20;;;;;;;5.18;1.52;;;;;;;20.81;35.76;103879.22;7311147;19;130094;-68
2021/12/18 08:43:48;;;;;;;5.78;1.38;;;;;;;20.80;35.75;103881.13;7309355;19;131955;-67
2021/12/18 08:46:16;;;;;;;4.03;1.27;;;;;;;20.80;35.83;103877.50;7309580;19;131314;-68
2021/12/18 08:48:43;;;;;;;5.40;1.10;;;;;;;20.82;35.56;103880.94;7315102;19;129369;-68
2021/12/18 08:51:09;;;;;;;6.28;1.42;;;;;;;20.81;35.53;103877.28;7311547;19;129552;-68
2021/12/18 08:53:37;;;;;;;4.53;1.35;;;;;;;20.82;35.78;103881.81;7313112;19;131325;-68
2021/12/18 08:56:04;;;;;;;4.85;1.02;;;;;;;20.81;35.88;103885.63;7314526;19;131220;-68
2021/12/18 08:58:31;;;;;;;2.20;0.95;;;;;;;20.81;35.57;103885.63;7313370;19;129243;-68
2021/12/18 09:00:58;;;;;;;3.63;1.10;;;;;;;20.82;35.56;103881.81;7312777;19;128885;-67
2021/12/18 09:03:25;;;;;;;7.10;1.00;;;;;;;20.81;35.68;103877.28;7311590;19;130660;-65
2021/12/18 09:05:52;;;;;;;7.97;1.55;;;;;;;20.80;35.91;103883.91;7313948;19;131731;-67
2021/12/18 09:08:19;;;;;;;2.85;1.10;;;;;;;20.78;35.55;103885.16;7311542;19;128964;-67
2021/12/18 09:10:45;;;;;;;4.85;1.20;;;;;;;20.75;35.67;103880.81;7312765;19;128958;-68
2021/12/18 09:13:12;;;;;;;2.42;1.10;;;;;;;20.73;35.76;103877.34;7312987;19;130680;-68
2021/12/18 09:15:39;;;;;;;2.10;1.08;;;;;;;20.67;35.78;103878.13;7313883;19;131001;-68
2021/12/18 09:18:06;;;;;;;2.42;1.05;;;;;;;20.64;35.59;103878.50;7316171;19;128985;-68
2021/12/18 09:20:33;;;;;;;4.00;0.75;;;;;;;20.59;35.72;103896.59;7313479;19;128995;-68
2021/12/18 09:23:01;;;;;;;1.73;0.95;;;;;;;20.53;35.90;103889.03;7310180;19;132220;-68
2021/12/18 09:25:28;;;;;;;2.30;0.93;;;;;;;20.49;35.97;103895.16;7308831;19;131090;-68
2021/12/18 09:27:56;;;;;;;3.00;1.00;;;;;;;20.43;36.01;103888.41;7312440;19;129015;-69
2021/12/18 09:30:24;;;;;;;3.53;1.08;;;;;;;20.39;36.12;103890.69;7308966;19;130939;-68
2021/12/18 09:32:51;;;;;;;1.58;1.10;;;;;;;20.35;36.24;103888.47;7312886;19;130854;-71
2021/12/18 09:35:20;;;;;;;1.55;0.93;;;;;;;20.30;36.23;103891.81;7310834;19;131615;-70
2021/12/18 09:37:47;;;;;;;4.25;1.35;;;;;;;20.25;35.94;103886.81;7314281;19;129361;-70
2021/12/18 09:40:17;;;;;;;5.00;1.27;;;;;;;20.21;36.00;103892.91;7310667;19;129070;-70
2021/12/18 09:42:44;;;;;;;3.13;1.20;;;;;;;20.18;36.42;103890.50;7312397;19;130841;-70
2021/12/18 09:45:11;;;;;;;2.22;1.23;;;;;;;20.12;36.32;103890.19;7314328;19;131229;-70
2021/12/18 09:47:38;;;;;;;1.70;1.30;;;;;;;20.08;36.34;103897.19;7312008;19;129776;-70
2021/12/18 09:50:06;;;;;;;5.10;1.50;;;;;;;20.04;36.37;103897.72;7313641;19;129415;-71
2021/12/18 09:52:35;;;;;;;8.55;1.27;;;;;;;19.99;36.30;103899.13;7308203;19;131679;-70
2021/12/18 09:55:03;;;;;;;5.28;1.73;;;;;;;19.93;36.39;103901.75;7312157;19;130616;-71
2021/12/18 09:57:30;;;;;;;4.85;1.80;;;;;;;19.90;36.42;103894.66;7310218;19;131793;-70
2021/12/18 09:59:56;;;;;;;18.27;2.78;;;;;;;19.90;36.26;103889.09;7313392;19;129340;-70
2021/12/18 10:02:24;;;;;;;5.07;1.83;;;;;;;19.93;35.90;103891.50;7309996;19;130468;-71
2021/12/18 10:04:51;;;;;;;4.93;1.85;;;;;;;19.98;35.84;103896.53;7310835;19;131042;-71
2021/12/18 10:07:20;;;;;;;3.13;1.65;;;;;;;20.04;36.14;103894.94;7307701;19;130235;-70
2021/12/18 10:09:50;;;;;;;5.88;2.05;;;;;;;20.09;36.39;103886.91;7310244;19;129223;-70
2021/12/18 10:12:23;;;;;;;3.03;1.52;;;;;;;20.18;35.79;103891.38;7313028;19;130987;-70
2021/12/18 10:14:54;;;;;;;4.05;1.30;;;;;;;20.29;35.85;103877.06;7310043;19;132026;-70
2021/12/18 10:17:31;;;;;;;3.22;1.30;;;;;;;20.40;35.97;103884.06;7312509;19;128869;-70
2021/12/18 10:20:10;;;;;;;4.32;1.50;;;;;;;20.56;35.62;103871.09;7310921;19;128879;-70
2021/12/18 10:22:43;;;;;;;7.43;1.58;;;;;;;20.67;35.61;103867.00;7313978;19;131227;-70
2021/12/18 10:25:12;;;;;;;5.05;1.30;;;;;;;20.78;35.91;103872.13;7320807;19;131422;-71
2021/12/18 10:27:41;;;;;;;2.67;1.27;;;;;;;20.86;35.58;103860.91;7317856;19;129532;-70
2021/12/18 10:30:16;;;;;;;5.57;1.35;;;;;;;20.96;35.65;103870.88;7320123;19;129381;-71
2021/12/18 10:33:05;;;;;;;3.65;1.60;;;;;;;21.06;35.77;103865.91;7317535;19;130850;-68
2021/12/18 10:35:50;;;;;;;3.70;1.23;;;;;;;21.14;35.49;103860.25;7320396;19;130704;-71
2021/12/18 10:38:36;;;;;;;3.28;1.45;;;;;;;21.21;35.73;103858.41;7317372;19;128902;-70
2021/12/18 10:41:19;;;;;;;2.30;1.23;;;;;;;21.29;35.34;103856.59;7309565;19;131894;-71
2021/12/18 10:44:12;;;;;;;3.00;1.30;;;;;;;21.34;35.24;103849.41;7316268;19;134125;-71
2021/12/18 10:46:42;;;;;;;1.98;1.42;;;;;;;21.40;35.19;103844.97;7314243;19;131060;-71
2021/12/18 10:49:12;;;;;;;1.63;1.00;;;;;;;21.47;35.36;103845.06;7314314;19;129244;-71
2021/12/18 10:51:40;;;;;;;4.88;1.13;;;;;;;21.50;35.21;103845.56;7313851;19;129112;-71
2021/12/18 10:54:23;;;;;;;4.80;1.25;;;;;;;21.57;35.14;103845.63;7314022;19;131396;-70
2021/12/18 10:56:53;;;;;;;2.33;1.40;;;;;;;21.62;34.99;103842.25;7317011;19;131377;-71
2021/12/18 10:59:27;;;;;;;6.80;1.45;;;;;;;21.64;35.13;103840.16;7313889;19;128847;-70
2021/12/18 11:01:56;;;;;;;3.40;1.20;;;;;;;21.67;35.14;103842.53;7317499;19;129521;-70
2021/12/18 11:04:32;;;;;;;3.42;1.75;;;;;;;21.69;35.27;103845.97;7309871;19;130789;-71
2021/12/18 11:07:14;;;;;;;3.92;1.30;;;;;;;21.70;35.03;103839.34;7312225;19;131640;-71
2021/12/18 11:09:48;;;;;;;7.18;1.83;;;;;;;21.72;34.87;103844.75;7297552;19;131035;-71
2021/12/18 11:15:01;;;;;;;5.57;1.60;;;;;;;21.74;34.96;103839.81;7304948;19;131774;-72
2021/12/18 11:17:28;;;;;;;7.45;1.80;;;;;;;21.75;34.99;103835.97;7301822;19;133612;-71
2021/12/18 11:19:55;;;;;;;6.75;1.40;;;;;;;21.76;35.13;103841.38;7310306;19;130755;-71
2021/12/18 11:22:22;;;;;;;3.85;1.60;;;;;;;21.77;35.04;103829.16;7307158;19;130864;-71
2021/12/18 11:25:16;;;;;;;7.68;1.50;;;;;;;21.80;35.10;103831.53;7308928;19;130697;-70
2021/12/18 11:27:43;;;;;;;7.38;1.40;;;;;;;21.82;34.90;103818.25;7309685;19;130704;-71
2021/12/18 11:30:14;;;;;;;5.63;1.40;;;;;;;21.86;35.39;103821.50;7306905;19;129399;-70
2021/12/18 11:32:54;;;;;;;5.72;1.50;;;;;;;21.91;35.27;103826.53;7310943;19;129391;-71
2021/12/18 11:35:23;;;;;;;3.85;1.10;;;;;;;21.94;35.51;103818.63;7300150;19;130741;-70
2021/12/18 11:38:01;;;;;;;3.50;1.20;;;;;;;21.97;35.27;103814.56;7309033;19;131188;-71
2021/12/18 11:40:32;;;;;;;4.97;1.45;;;;;;;21.99;35.36;103818.00;7307385;19;128877;-71
2021/12/18 11:42:59;;;;;;;5.65;1.38;;;;;;;22.01;35.28;103815.91;7309599;19;129960;-71
2021/12/18 11:45:35;;;;;;;2.05;1.25;;;;;;;22.04;35.23;103818.25;7308256;19;130763;-71
2021/12/18 11:48:04;;;;;;;4.40;1.30;;;;;;;22.06;35.18;103812.50;7306756;19;132139;-68
2021/12/18 11:50:39;;;;;;;4.53;1.35;;;;;;;22.05;35.72;103817.19;7307500;19;129977;-70
2021/12/18 11:53:10;;;;;;;7.78;1.52;;;;;;;22.03;35.45;103810.97;7299773;19;130942;-71
2021/12/18 11:55:48;;;;;;;6.72;1.45;;;;;;;22.07;35.81;103806.72;7308155;19;130684;-72
2021/12/18 11:58:23;;;;;;;9.20;1.60;;;;;;;22.08;35.93;103802.03;7305308;19;130524;-71
2021/12/18 12:01:00;;;;;;;6.85;1.67;;;;;;;22.08;35.72;103804.81;7310359;19;129505;-71
2021/12/18 12:03:43;;;;;;;8.15;1.67;;;;;;;22.08;35.86;103808.44;7306215;19;129268;-71
2021/12/18 12:06:30;;;;;;;5.15;1.70;;;;;;;22.07;35.73;103801.13;7303971;19;130686;-70
2021/12/18 12:09:55;;;;;;;7.20;1.70;;;;;;;22.07;35.47;103800.28;7308578;19;130532;-71
2021/12/18 12:12:15;;;;;;;3.67;1.35;;;;;;;22.07;35.72;103794.72;7305862;19;130502;-71